sensor_id;sensor_type;location;lat;lon;timestamp;P1;durP1;ratioP1;P2;durP2;ratioP2
4508;SDS011;2267;48.816;9.230;2022-09-30T00:00:54;8.43;;;7.67;;
4508;SDS011;2267;48.816;9.230;2022-09-30T00:03:21;9.23;;;8.37;;
4508;SDS011;2267;48.816;9.230;2022-09-30T00:05:56;9.60;;;8.70;;
4508;SDS011;2267;48.816;9.230;2022-09-30T00:08:23;9.60;;;8.60;;
4508;SDS011;2267;48.816;9.230;2022-09-30T00:10:57;9.33;;;8.50;;
4508;SDS011;2267;48.816;9.230;2022-09-30T00:13:35;8.60;;;7.80;;
4508;SDS011;2267;48.816;9.230;2022-09-30T00:16:03;9.47;;;8.57;;
4508;SDS011;2267;48.816;9.230;2022-09-30T00:18:30;8.07;;;7.37;;
4508;SDS011;2267;48.816;9.230;2022-09-30T00:20:57;8.20;;;7.47;;
4508;SDS011;2267;48.816;9.230;2022-09-30T00:23:25;8.80;;;8.03;;
4508;SDS011;2267;48.816;9.230;2022-09-30T00:25:56;8.40;;;7.70;;
4508;SDS011;2267;48.816;9.230;2022-09-30T00:28:24;8.67;;;7.87;;
4508;SDS011;2267;48.816;9.230;2022-09-30T00:30:52;8.63;;;7.73;;
4508;SDS011;2267;48.816;9.230;2022-09-30T00:33:20;8.47;;;7.77;;
4508;SDS011;2267;48.816;9.230;2022-09-30T00:35:46;7.80;;;6.93;;
4508;SDS011;2267;48.816;9.230;2022-09-30T00:38:13;9.33;;;7.47;;
4508;SDS011;2267;48.816;9.230;2022-09-30T00:40:40;9.20;;;8.40;;
4508;SDS011;2267;48.816;9.230;2022-09-30T00:43:11;9.30;;;8.37;;
4508;SDS011;2267;48.816;9.230;2022-09-30T00:45:42;10.67;;;6.90;;
4508;SDS011;2267;48.816;9.230;2022-09-30T00:48:16;8.70;;;8.00;;
4508;SDS011;2267;48.816;9.230;2022-09-30T00:50:48;8.97;;;8.13;;
4508;SDS011;2267;48.816;9.230;2022-09-30T00:53:30;8.10;;;7.40;;
4508;SDS011;2267;48.816;9.230;2022-09-30T00:56:04;8.37;;;7.67;;
4508;SDS011;2267;48.816;9.230;2022-09-30T01:01:13;7.20;;;6.60;;
4508;SDS011;2267;48.816;9.230;2022-09-30T01:03:42;8.30;;;7.70;;
4508;SDS011;2267;48.816;9.230;2022-09-30T01:06:15;7.90;;;7.17;;
4508;SDS011;2267;48.816;9.230;2022-09-30T01:08:43;7.70;;;7.10;;
4508;SDS011;2267;48.816;9.230;2022-09-30T01:11:11;8.03;;;7.40;;
4508;SDS011;2267;48.816;9.230;2022-09-30T01:13:40;7.03;;;6.43;;
4508;SDS011;2267;48.816;9.230;2022-09-30T01:25:00;9.03;;;7.50;;
4508;SDS011;2267;48.816;9.230;2022-09-30T01:38:42;8.83;;;7.93;;
4508;SDS011;2267;48.816;9.230;2022-09-30T01:44:22;7.40;;;6.80;;
4508;SDS011;2267;48.816;9.230;2022-09-30T01:47:13;7.10;;;6.50;;
4508;SDS011;2267;48.816;9.230;2022-09-30T01:50:26;8.97;;;8.17;;
4508;SDS011;2267;48.816;9.230;2022-09-30T01:55:35;8.73;;;7.80;;
4508;SDS011;2267;48.816;9.230;2022-09-30T01:58:11;9.07;;;8.30;;
4508;SDS011;2267;48.816;9.230;2022-09-30T02:01:00;8.20;;;7.40;;
4508;SDS011;2267;48.816;9.230;2022-09-30T02:03:32;8.23;;;7.43;;
4508;SDS011;2267;48.816;9.230;2022-09-30T02:06:08;8.07;;;7.47;;
4508;SDS011;2267;48.816;9.230;2022-09-30T02:08:44;8.50;;;7.70;;
4508;SDS011;2267;48.816;9.230;2022-09-30T02:11:19;8.70;;;7.80;;
4508;SDS011;2267;48.816;9.230;2022-09-30T02:16:30;7.93;;;7.13;;
4508;SDS011;2267;48.816;9.230;2022-09-30T02:19:16;9.83;;;8.67;;
4508;SDS011;2267;48.816;9.230;2022-09-30T02:21:52;7.87;;;7.27;;
4508;SDS011;2267;48.816;9.230;2022-09-30T02:24:23;9.03;;;6.90;;
4508;SDS011;2267;48.816;9.230;2022-09-30T02:26:52;7.60;;;7.00;;
4508;SDS011;2267;48.816;9.230;2022-09-30T02:29:27;8.17;;;6.97;;
4508;SDS011;2267;48.816;9.230;2022-09-30T02:31:58;8.53;;;7.73;;
4508;SDS011;2267;48.816;9.230;2022-09-30T02:34:29;6.90;;;6.30;;
4508;SDS011;2267;48.816;9.230;2022-09-30T02:37:01;10.00;;;7.60;;
4508;SDS011;2267;48.816;9.230;2022-09-30T02:42:09;7.40;;;6.80;;
4508;SDS011;2267;48.816;9.230;2022-09-30T02:44:41;7.47;;;6.83;;
4508;SDS011;2267;48.816;9.230;2022-09-30T02:47:11;8.03;;;7.43;;
4508;SDS011;2267;48.816;9.230;2022-09-30T02:49:47;7.90;;;7.20;;
4508;SDS011;2267;48.816;9.230;2022-09-30T02:55:30;8.40;;;7.53;;
4508;SDS011;2267;48.816;9.230;2022-09-30T02:58:13;8.60;;;7.87;;
4508;SDS011;2267;48.816;9.230;2022-09-30T03:00:42;8.50;;;7.70;;
4508;SDS011;2267;48.816;9.230;2022-09-30T03:03:11;8.20;;;7.50;;
4508;SDS011;2267;48.816;9.230;2022-09-30T03:05:47;8.87;;;8.17;;
4508;SDS011;2267;48.816;9.230;2022-09-30T03:08:15;7.83;;;7.23;;
4508;SDS011;2267;48.816;9.230;2022-09-30T03:10:42;8.30;;;7.60;;
4508;SDS011;2267;48.816;9.230;2022-09-30T03:13:18;8.87;;;8.07;;
4508;SDS011;2267;48.816;9.230;2022-09-30T03:30:21;8.33;;;7.50;;
4508;SDS011;2267;48.816;9.230;2022-09-30T03:33:08;7.73;;;7.03;;
4508;SDS011;2267;48.816;9.230;2022-09-30T03:35:55;7.90;;;7.30;;
4508;SDS011;2267;48.816;9.230;2022-09-30T03:41:26;11.10;;;7.47;;
4508;SDS011;2267;48.816;9.230;2022-09-30T03:43:59;8.13;;;7.53;;
4508;SDS011;2267;48.816;9.230;2022-09-30T03:49:04;8.07;;;7.37;;
4508;SDS011;2267;48.816;9.230;2022-09-30T03:51:38;7.70;;;7.10;;
4508;SDS011;2267;48.816;9.230;2022-09-30T03:54:10;8.07;;;7.30;;
4508;SDS011;2267;48.816;9.230;2022-09-30T03:56:38;8.20;;;7.10;;
4508;SDS011;2267;48.816;9.230;2022-09-30T03:59:12;6.70;;;6.20;;
4508;SDS011;2267;48.816;9.230;2022-09-30T04:01:48;7.40;;;6.70;;
4508;SDS011;2267;48.816;9.230;2022-09-30T04:04:15;7.97;;;7.27;;
4508;SDS011;2267;48.816;9.230;2022-09-30T04:06:42;8.23;;;7.63;;
4508;SDS011;2267;48.816;9.230;2022-09-30T04:09:09;7.40;;;6.77;;
4508;SDS011;2267;48.816;9.230;2022-09-30T04:11:35;8.50;;;7.77;;
4508;SDS011;2267;48.816;9.230;2022-09-30T04:14:02;8.17;;;6.90;;
4508;SDS011;2267;48.816;9.230;2022-09-30T04:16:30;7.43;;;6.87;;
4508;SDS011;2267;48.816;9.230;2022-09-30T04:18:57;7.23;;;6.53;;
4508;SDS011;2267;48.816;9.230;2022-09-30T04:21:24;8.03;;;7.33;;
4508;SDS011;2267;48.816;9.230;2022-09-30T04:23:54;7.10;;;6.50;;
4508;SDS011;2267;48.816;9.230;2022-09-30T04:26:21;7.20;;;6.60;;
4508;SDS011;2267;48.816;9.230;2022-09-30T04:28:48;7.63;;;7.10;;
4508;SDS011;2267;48.816;9.230;2022-09-30T04:31:15;8.10;;;7.30;;
4508;SDS011;2267;48.816;9.230;2022-09-30T04:33:44;6.87;;;6.37;;
4508;SDS011;2267;48.816;9.230;2022-09-30T04:36:11;7.03;;;6.33;;
4508;SDS011;2267;48.816;9.230;2022-09-30T04:38:37;7.70;;;7.00;;
4508;SDS011;2267;48.816;9.230;2022-09-30T04:41:05;7.50;;;6.87;;
4508;SDS011;2267;48.816;9.230;2022-09-30T04:43:32;8.00;;;7.20;;
4508;SDS011;2267;48.816;9.230;2022-09-30T04:45:59;7.97;;;7.20;;
4508;SDS011;2267;48.816;9.230;2022-09-30T04:48:26;8.10;;;7.30;;
4508;SDS011;2267;48.816;9.230;2022-09-30T04:50:56;8.93;;;8.13;;
4508;SDS011;2267;48.816;9.230;2022-09-30T04:53:24;7.87;;;7.10;;
4508;SDS011;2267;48.816;9.230;2022-09-30T04:55:56;9.70;;;8.90;;
4508;SDS011;2267;48.816;9.230;2022-09-30T04:58:24;9.30;;;8.50;;
4508;SDS011;2267;48.816;9.230;2022-09-30T05:00:58;11.30;;;9.00;;
4508;SDS011;2267;48.816;9.230;2022-09-30T05:03:29;10.37;;;9.37;;
4508;SDS011;2267;48.816;9.230;2022-09-30T05:05:56;9.40;;;8.60;;
4508;SDS011;2267;48.816;9.230;2022-09-30T05:08:23;9.20;;;8.50;;
4508;SDS011;2267;48.816;9.230;2022-09-30T05:10:53;10.03;;;9.13;;
4508;SDS011;2267;48.816;9.230;2022-09-30T05:13:28;9.50;;;8.63;;
4508;SDS011;2267;48.816;9.230;2022-09-30T05:15:57;9.47;;;8.57;;
4508;SDS011;2267;48.816;9.230;2022-09-30T05:18:23;9.87;;;8.87;;
4508;SDS011;2267;48.816;9.230;2022-09-30T05:20:53;8.90;;;8.20;;
4508;SDS011;2267;48.816;9.230;2022-09-30T05:23:26;10.23;;;9.33;;
4508;SDS011;2267;48.816;9.230;2022-09-30T05:25:55;8.37;;;7.67;;
4508;SDS011;2267;48.816;9.230;2022-09-30T05:28:22;10.03;;;9.13;;
4508;SDS011;2267;48.816;9.230;2022-09-30T05:30:57;9.93;;;9.03;;
4508;SDS011;2267;48.816;9.230;2022-09-30T05:33:31;10.40;;;9.50;;
4508;SDS011;2267;48.816;9.230;2022-09-30T05:35:59;8.87;;;8.17;;
4508;SDS011;2267;48.816;9.230;2022-09-30T05:38:28;10.07;;;9.07;;
4508;SDS011;2267;48.816;9.230;2022-09-30T05:40:55;10.63;;;8.60;;
4508;SDS011;2267;48.816;9.230;2022-09-30T05:43:22;9.43;;;8.47;;
4508;SDS011;2267;48.816;9.230;2022-09-30T05:45:52;9.40;;;8.50;;
4508;SDS011;2267;48.816;9.230;2022-09-30T05:48:20;10.07;;;9.00;;
4508;SDS011;2267;48.816;9.230;2022-09-30T05:50:47;10.40;;;9.50;;
4508;SDS011;2267;48.816;9.230;2022-09-30T05:53:18;10.70;;;9.80;;
4508;SDS011;2267;48.816;9.230;2022-09-30T05:55:45;11.80;;;10.57;;
4508;SDS011;2267;48.816;9.230;2022-09-30T05:58:13;11.30;;;10.10;;
4508;SDS011;2267;48.816;9.230;2022-09-30T06:00:41;11.87;;;10.73;;
4508;SDS011;2267;48.816;9.230;2022-09-30T06:03:09;11.87;;;10.67;;
4508;SDS011;2267;48.816;9.230;2022-09-30T06:05:36;12.93;;;10.20;;
4508;SDS011;2267;48.816;9.230;2022-09-30T06:08:03;10.63;;;9.70;;
4508;SDS011;2267;48.816;9.230;2022-09-30T06:10:32;11.70;;;10.07;;
4508;SDS011;2267;48.816;9.230;2022-09-30T06:13:03;12.13;;;10.90;;
4508;SDS011;2267;48.816;9.230;2022-09-30T06:15:30;12.13;;;10.93;;
4508;SDS011;2267;48.816;9.230;2022-09-30T06:17:57;12.10;;;11.00;;
4508;SDS011;2267;48.816;9.230;2022-09-30T06:20:24;13.57;;;12.27;;
4508;SDS011;2267;48.816;9.230;2022-09-30T06:22:51;13.43;;;12.27;;
4508;SDS011;2267;48.816;9.230;2022-09-30T06:25:18;13.07;;;11.97;;
4508;SDS011;2267;48.816;9.230;2022-09-30T06:27:45;16.13;;;14.63;;
4508;SDS011;2267;48.816;9.230;2022-09-30T06:30:12;15.73;;;14.37;;
4508;SDS011;2267;48.816;9.230;2022-09-30T06:32:39;14.80;;;13.50;;
4508;SDS011;2267;48.816;9.230;2022-09-30T06:35:07;15.50;;;14.20;;
4508;SDS011;2267;48.816;9.230;2022-09-30T06:37:35;17.30;;;15.80;;
4508;SDS011;2267;48.816;9.230;2022-09-30T06:40:04;18.50;;;16.70;;
4508;SDS011;2267;48.816;9.230;2022-09-30T06:42:31;19.07;;;17.40;;
4508;SDS011;2267;48.816;9.230;2022-09-30T06:44:58;18.40;;;16.80;;
4508;SDS011;2267;48.816;9.230;2022-09-30T06:47:25;18.73;;;17.13;;
4508;SDS011;2267;48.816;9.230;2022-09-30T06:49:52;18.67;;;17.07;;
4508;SDS011;2267;48.816;9.230;2022-09-30T06:52:24;20.30;;;18.60;;
4508;SDS011;2267;48.816;9.230;2022-09-30T06:54:52;19.17;;;17.47;;
4508;SDS011;2267;48.816;9.230;2022-09-30T06:57:22;16.87;;;15.37;;
4508;SDS011;2267;48.816;9.230;2022-09-30T06:59:51;18.13;;;16.23;;
4508;SDS011;2267;48.816;9.230;2022-09-30T07:02:20;16.50;;;15.10;;
4508;SDS011;2267;48.816;9.230;2022-09-30T07:04:47;17.07;;;15.53;;
4508;SDS011;2267;48.816;9.230;2022-09-30T07:07:14;16.37;;;14.77;;
4508;SDS011;2267;48.816;9.230;2022-09-30T07:09:40;18.20;;;16.57;;
4508;SDS011;2267;48.816;9.230;2022-09-30T07:12:08;16.50;;;15.10;;
4508;SDS011;2267;48.816;9.230;2022-09-30T07:14:35;19.50;;;17.90;;
4508;SDS011;2267;48.816;9.230;2022-09-30T07:17:02;20.20;;;18.47;;
4508;SDS011;2267;48.816;9.230;2022-09-30T07:19:30;17.80;;;16.30;;
4508;SDS011;2267;48.816;9.230;2022-09-30T07:22:00;16.50;;;15.20;;
4508;SDS011;2267;48.816;9.230;2022-09-30T07:24:47;17.43;;;16.03;;
4508;SDS011;2267;48.816;9.230;2022-09-30T07:27:14;17.70;;;16.10;;
4508;SDS011;2267;48.816;9.230;2022-09-30T07:29:41;19.07;;;17.57;;
4508;SDS011;2267;48.816;9.230;2022-09-30T07:32:29;20.27;;;18.53;;
4508;SDS011;2267;48.816;9.230;2022-09-30T07:34:56;19.90;;;18.00;;
4508;SDS011;2267;48.816;9.230;2022-09-30T07:37:23;20.43;;;18.60;;
4508;SDS011;2267;48.816;9.230;2022-09-30T07:39:51;21.70;;;19.87;;
4508;SDS011;2267;48.816;9.230;2022-09-30T07:42:18;22.97;;;21.00;;
4508;SDS011;2267;48.816;9.230;2022-09-30T07:44:48;21.60;;;19.70;;
4508;SDS011;2267;48.816;9.230;2022-09-30T07:47:17;19.27;;;17.80;;
4508;SDS011;2267;48.816;9.230;2022-09-30T07:49:45;19.97;;;17.90;;
4508;SDS011;2267;48.816;9.230;2022-09-30T07:52:11;19.37;;;17.73;;
4508;SDS011;2267;48.816;9.230;2022-09-30T07:54:39;20.93;;;18.80;;
4508;SDS011;2267;48.816;9.230;2022-09-30T07:57:14;18.73;;;17.10;;
4508;SDS011;2267;48.816;9.230;2022-09-30T07:59:42;18.53;;;16.77;;
4508;SDS011;2267;48.816;9.230;2022-09-30T08:02:16;18.80;;;17.20;;
4508;SDS011;2267;48.816;9.230;2022-09-30T08:04:44;17.33;;;16.00;;
4508;SDS011;2267;48.816;9.230;2022-09-30T08:07:13;18.17;;;16.30;;
4508;SDS011;2267;48.816;9.230;2022-09-30T08:09:41;17.93;;;16.43;;
4508;SDS011;2267;48.816;9.230;2022-09-30T08:12:08;18.93;;;17.27;;
4508;SDS011;2267;48.816;9.230;2022-09-30T08:14:35;17.53;;;16.13;;
4508;SDS011;2267;48.816;9.230;2022-09-30T08:17:02;19.20;;;17.40;;
4508;SDS011;2267;48.816;9.230;2022-09-30T08:19:29;18.60;;;16.80;;
4508;SDS011;2267;48.816;9.230;2022-09-30T08:21:56;19.37;;;17.70;;
4508;SDS011;2267;48.816;9.230;2022-09-30T08:24:24;18.27;;;16.77;;
4508;SDS011;2267;48.816;9.230;2022-09-30T08:26:52;18.07;;;16.60;;
4508;SDS011;2267;48.816;9.230;2022-09-30T08:29:20;15.87;;;14.57;;
4508;SDS011;2267;48.816;9.230;2022-09-30T08:32:07;16.10;;;14.60;;
4508;SDS011;2267;48.816;9.230;2022-09-30T08:34:34;19.17;;;17.37;;
4508;SDS011;2267;48.816;9.230;2022-09-30T08:37:01;17.70;;;16.30;;
4508;SDS011;2267;48.816;9.230;2022-09-30T08:39:34;17.10;;;15.63;;
4508;SDS011;2267;48.816;9.230;2022-09-30T08:42:05;16.50;;;15.20;;
4508;SDS011;2267;48.816;9.230;2022-09-30T08:45:02;16.77;;;15.43;;
4508;SDS011;2267;48.816;9.230;2022-09-30T08:53:00;18.03;;;16.63;;
4508;SDS011;2267;48.816;9.230;2022-09-30T08:55:38;16.50;;;15.00;;
4508;SDS011;2267;48.816;9.230;2022-09-30T08:58:20;17.40;;;15.67;;
4508;SDS011;2267;48.816;9.230;2022-09-30T09:00:54;16.13;;;14.93;;
4508;SDS011;2267;48.816;9.230;2022-09-30T09:03:40;18.60;;;17.10;;
4508;SDS011;2267;48.816;9.230;2022-09-30T09:06:13;17.70;;;16.33;;
4508;SDS011;2267;48.816;9.230;2022-09-30T09:11:56;17.50;;;16.10;;
4508;SDS011;2267;48.816;9.230;2022-09-30T09:20:36;17.40;;;16.00;;
4508;SDS011;2267;48.816;9.230;2022-09-30T09:23:08;15.80;;;14.50;;
4508;SDS011;2267;48.816;9.230;2022-09-30T09:25:37;16.70;;;15.40;;
4508;SDS011;2267;48.816;9.230;2022-09-30T09:28:21;16.23;;;14.93;;
4508;SDS011;2267;48.816;9.230;2022-09-30T09:31:11;16.97;;;15.57;;
4508;SDS011;2267;48.816;9.230;2022-09-30T09:33:42;17.60;;;15.80;;
4508;SDS011;2267;48.816;9.230;2022-09-30T09:44:20;16.03;;;14.50;;
4508;SDS011;2267;48.816;9.230;2022-09-30T09:46:53;15.67;;;14.20;;
4508;SDS011;2267;48.816;9.230;2022-09-30T09:49:31;16.20;;;14.90;;
4508;SDS011;2267;48.816;9.230;2022-09-30T09:54:42;15.13;;;13.87;;
4508;SDS011;2267;48.816;9.230;2022-09-30T09:57:11;13.93;;;12.73;;
4508;SDS011;2267;48.816;9.230;2022-09-30T10:02:59;14.50;;;13.20;;
4508;SDS011;2267;48.816;9.230;2022-09-30T10:05:32;13.33;;;11.90;;
4508;SDS011;2267;48.816;9.230;2022-09-30T10:08:11;13.40;;;12.27;;
4508;SDS011;2267;48.816;9.230;2022-09-30T10:10:42;13.23;;;12.07;;
4508;SDS011;2267;48.816;9.230;2022-09-30T10:13:15;13.13;;;12.03;;
4508;SDS011;2267;48.816;9.230;2022-09-30T10:15:43;13.17;;;11.87;;
4508;SDS011;2267;48.816;9.230;2022-09-30T10:18:18;11.57;;;10.57;;
4508;SDS011;2267;48.816;9.230;2022-09-30T10:20:50;12.37;;;11.17;;
4508;SDS011;2267;48.816;9.230;2022-09-30T10:28:28;11.03;;;10.13;;
4508;SDS011;2267;48.816;9.230;2022-09-30T10:33:47;9.63;;;8.83;;
4508;SDS011;2267;48.816;9.230;2022-09-30T10:36:22;7.90;;;7.17;;
4508;SDS011;2267;48.816;9.230;2022-09-30T10:39:06;6.77;;;6.10;;
4508;SDS011;2267;48.816;9.230;2022-09-30T10:41:34;5.20;;;4.70;;
4508;SDS011;2267;48.816;9.230;2022-09-30T10:44:04;5.73;;;5.23;;
4508;SDS011;2267;48.816;9.230;2022-09-30T10:46:38;5.17;;;4.70;;
4508;SDS011;2267;48.816;9.230;2022-09-30T10:52:24;4.80;;;4.40;;
4508;SDS011;2267;48.816;9.230;2022-09-30T10:54:54;6.03;;;5.53;;
4508;SDS011;2267;48.816;9.230;2022-09-30T10:57:30;6.70;;;6.10;;
4508;SDS011;2267;48.816;9.230;2022-09-30T11:02:32;7.60;;;6.93;;
4508;SDS011;2267;48.816;9.230;2022-09-30T11:05:02;7.10;;;6.50;;
4508;SDS011;2267;48.816;9.230;2022-09-30T11:07:55;6.60;;;6.00;;
4508;SDS011;2267;48.816;9.230;2022-09-30T11:19:07;5.17;;;4.67;;
4508;SDS011;2267;48.816;9.230;2022-09-30T11:41:28;5.33;;;3.70;;
4508;SDS011;2267;48.816;9.230;2022-09-30T11:44:00;4.43;;;4.03;;
4508;SDS011;2267;48.816;9.230;2022-09-30T11:52:47;4.70;;;4.30;;
4508;SDS011;2267;48.816;9.230;2022-09-30T11:58:35;4.93;;;3.80;;
4508;SDS011;2267;48.816;9.230;2022-09-30T12:04:13;5.27;;;3.40;;
4508;SDS011;2267;48.816;9.230;2022-09-30T12:06:55;4.70;;;3.97;;
4508;SDS011;2267;48.816;9.230;2022-09-30T12:09:31;5.10;;;4.50;;
4508;SDS011;2267;48.816;9.230;2022-09-30T12:12:15;4.13;;;3.73;;
4508;SDS011;2267;48.816;9.230;2022-09-30T12:14:48;4.10;;;3.70;;
4508;SDS011;2267;48.816;9.230;2022-09-30T12:17:41;4.67;;;3.93;;
4508;SDS011;2267;48.816;9.230;2022-09-30T12:20:22;5.03;;;3.50;;
4508;SDS011;2267;48.816;9.230;2022-09-30T12:25:54;4.53;;;3.07;;
4508;SDS011;2267;48.816;9.230;2022-09-30T12:28:26;2.50;;;2.10;;
4508;SDS011;2267;48.816;9.230;2022-09-30T12:34:25;2.30;;;1.97;;
4508;SDS011;2267;48.816;9.230;2022-09-30T12:47:51;3.60;;;3.00;;
4508;SDS011;2267;48.816;9.230;2022-09-30T12:50:23;4.50;;;2.60;;
4508;SDS011;2267;48.816;9.230;2022-09-30T12:52:55;3.43;;;2.77;;
4508;SDS011;2267;48.816;9.230;2022-09-30T12:57:53;3.70;;;2.63;;
4508;SDS011;2267;48.816;9.230;2022-09-30T13:00:22;3.70;;;3.30;;
4508;SDS011;2267;48.816;9.230;2022-09-30T13:02:59;2.50;;;2.30;;
4508;SDS011;2267;48.816;9.230;2022-09-30T13:10:30;4.20;;;2.80;;
4508;SDS011;2267;48.816;9.230;2022-09-30T13:13:22;3.00;;;2.70;;
4508;SDS011;2267;48.816;9.230;2022-09-30T13:15:59;3.83;;;2.07;;
4508;SDS011;2267;48.816;9.230;2022-09-30T13:32:10;3.37;;;2.47;;
4508;SDS011;2267;48.816;9.230;2022-09-30T13:34:26;3.07;;;1.77;;
4508;SDS011;2267;48.816;9.230;2022-09-30T13:37:02;2.43;;;1.93;;
4508;SDS011;2267;48.816;9.230;2022-09-30T13:39:42;4.50;;;2.07;;
4508;SDS011;2267;48.816;9.230;2022-09-30T13:42:26;2.80;;;2.10;;
4508;SDS011;2267;48.816;9.230;2022-09-30T13:47:42;2.40;;;1.83;;
4508;SDS011;2267;48.816;9.230;2022-09-30T13:50:17;2.90;;;2.10;;
4508;SDS011;2267;48.816;9.230;2022-09-30T13:52:46;3.50;;;1.90;;
4508;SDS011;2267;48.816;9.230;2022-09-30T13:55:21;3.10;;;1.83;;
4508;SDS011;2267;48.816;9.230;2022-09-30T13:58:12;3.83;;;1.83;;
4508;SDS011;2267;48.816;9.230;2022-09-30T14:09:36;2.47;;;1.80;;
4508;SDS011;2267;48.816;9.230;2022-09-30T14:23:16;2.30;;;1.90;;
4508;SDS011;2267;48.816;9.230;2022-09-30T14:25:54;2.30;;;1.60;;
4508;SDS011;2267;48.816;9.230;2022-09-30T14:28:46;2.70;;;2.20;;
4508;SDS011;2267;48.816;9.230;2022-09-30T14:31:18;2.40;;;2.20;;
4508;SDS011;2267;48.816;9.230;2022-09-30T14:33:46;2.47;;;2.00;;
4508;SDS011;2267;48.816;9.230;2022-09-30T14:36:16;3.17;;;2.03;;
4508;SDS011;2267;48.816;9.230;2022-09-30T14:38:48;3.30;;;1.93;;
4508;SDS011;2267;48.816;9.230;2022-09-30T14:41:24;2.60;;;2.13;;
4508;SDS011;2267;48.816;9.230;2022-09-30T14:43:54;2.87;;;2.57;;
4508;SDS011;2267;48.816;9.230;2022-09-30T14:46:37;2.40;;;2.20;;
4508;SDS011;2267;48.816;9.230;2022-09-30T14:49:11;2.30;;;2.10;;
4508;SDS011;2267;48.816;9.230;2022-09-30T14:51:40;2.50;;;2.30;;
4508;SDS011;2267;48.816;9.230;2022-09-30T14:54:14;4.63;;;2.23;;
4508;SDS011;2267;48.816;9.230;2022-09-30T14:56:46;3.93;;;2.23;;
4508;SDS011;2267;48.816;9.230;2022-09-30T14:59:15;2.40;;;2.13;;
4508;SDS011;2267;48.816;9.230;2022-09-30T15:01:48;2.63;;;2.40;;
4508;SDS011;2267;48.816;9.230;2022-09-30T15:04:24;2.80;;;2.20;;
4508;SDS011;2267;48.816;9.230;2022-09-30T15:06:57;2.93;;;2.60;;
4508;SDS011;2267;48.816;9.230;2022-09-30T15:09:38;2.27;;;2.07;;
4508;SDS011;2267;48.816;9.230;2022-09-30T15:12:10;2.50;;;2.30;;
4508;SDS011;2267;48.816;9.230;2022-09-30T15:14:46;4.47;;;2.93;;
4508;SDS011;2267;48.816;9.230;2022-09-30T15:17:18;3.00;;;2.40;;
4508;SDS011;2267;48.816;9.230;2022-09-30T15:19:46;2.93;;;2.33;;
4508;SDS011;2267;48.816;9.230;2022-09-30T15:22:15;3.33;;;2.60;;
4508;SDS011;2267;48.816;9.230;2022-09-30T15:24:43;2.50;;;2.30;;
4508;SDS011;2267;48.816;9.230;2022-09-30T15:27:14;3.10;;;2.50;;
4508;SDS011;2267;48.816;9.230;2022-09-30T15:29:58;4.80;;;2.40;;
4508;SDS011;2267;48.816;9.230;2022-09-30T15:32:28;2.50;;;2.30;;
4508;SDS011;2267;48.816;9.230;2022-09-30T15:37:47;2.30;;;1.80;;
4508;SDS011;2267;48.816;9.230;2022-09-30T15:40:14;3.30;;;2.27;;
4508;SDS011;2267;48.816;9.230;2022-09-30T15:43:09;2.93;;;2.03;;
4508;SDS011;2267;48.816;9.230;2022-09-30T15:45:44;2.73;;;2.43;;
4508;SDS011;2267;48.816;9.230;2022-09-30T15:50:53;2.67;;;2.37;;
4508;SDS011;2267;48.816;9.230;2022-09-30T15:53:30;2.33;;;2.03;;
4508;SDS011;2267;48.816;9.230;2022-09-30T15:56:15;2.40;;;2.00;;
4508;SDS011;2267;48.816;9.230;2022-09-30T15:58:55;3.57;;;2.00;;
4508;SDS011;2267;48.816;9.230;2022-09-30T16:01:42;3.17;;;1.83;;
4508;SDS011;2267;48.816;9.230;2022-09-30T16:04:13;2.70;;;1.87;;
4508;SDS011;2267;48.816;9.230;2022-09-30T16:06:50;3.30;;;1.73;;
4508;SDS011;2267;48.816;9.230;2022-09-30T16:09:30;2.67;;;2.20;;
4508;SDS011;2267;48.816;9.230;2022-09-30T16:12:00;2.57;;;1.97;;
4508;SDS011;2267;48.816;9.230;2022-09-30T16:19:50;3.17;;;2.23;;
4508;SDS011;2267;48.816;9.230;2022-09-30T16:27:36;2.47;;;2.00;;
4508;SDS011;2267;48.816;9.230;2022-09-30T16:30:03;3.60;;;2.17;;
4508;SDS011;2267;48.816;9.230;2022-09-30T16:32:34;2.70;;;2.13;;
4508;SDS011;2267;48.816;9.230;2022-09-30T16:35:04;3.20;;;2.17;;
4508;SDS011;2267;48.816;9.230;2022-09-30T16:37:31;2.83;;;2.50;;
4508;SDS011;2267;48.816;9.230;2022-09-30T16:39:59;3.60;;;2.83;;
4508;SDS011;2267;48.816;9.230;2022-09-30T16:42:35;3.50;;;2.50;;
4508;SDS011;2267;48.816;9.230;2022-09-30T16:45:02;2.43;;;2.23;;
4508;SDS011;2267;48.816;9.230;2022-09-30T16:47:29;4.40;;;2.23;;
4508;SDS011;2267;48.816;9.230;2022-09-30T16:49:56;3.57;;;2.50;;
4508;SDS011;2267;48.816;9.230;2022-09-30T16:52:23;4.25;;;2.20;;
4508;SDS011;2267;48.816;9.230;2022-09-30T16:54:51;2.53;;;1.80;;
4508;SDS011;2267;48.816;9.230;2022-09-30T16:57:17;3.30;;;1.93;;
4508;SDS011;2267;48.816;9.230;2022-09-30T16:59:44;3.30;;;2.40;;
4508;SDS011;2267;48.816;9.230;2022-09-30T17:02:12;3.47;;;2.30;;
4508;SDS011;2267;48.816;9.230;2022-09-30T17:04:39;2.43;;;2.23;;
4508;SDS011;2267;48.816;9.230;2022-09-30T17:07:09;3.23;;;2.70;;
4508;SDS011;2267;48.816;9.230;2022-09-30T17:09:37;4.03;;;3.20;;
4508;SDS011;2267;48.816;9.230;2022-09-30T17:12:04;3.90;;;3.17;;
4508;SDS011;2267;48.816;9.230;2022-09-30T17:14:31;4.13;;;3.00;;
4508;SDS011;2267;48.816;9.230;2022-09-30T17:16:58;4.80;;;3.00;;
4508;SDS011;2267;48.816;9.230;2022-09-30T17:19:26;3.70;;;3.20;;
4508;SDS011;2267;48.816;9.230;2022-09-30T17:21:55;4.00;;;3.60;;
4508;SDS011;2267;48.816;9.230;2022-09-30T17:24:21;6.60;;;4.30;;
4508;SDS011;2267;48.816;9.230;2022-09-30T17:26:48;4.60;;;4.20;;
4508;SDS011;2267;48.816;9.230;2022-09-30T17:29:15;6.40;;;4.17;;
4508;SDS011;2267;48.816;9.230;2022-09-30T17:31:57;4.83;;;3.93;;
4508;SDS011;2267;48.816;9.230;2022-09-30T17:34:24;4.80;;;4.30;;
4508;SDS011;2267;48.816;9.230;2022-09-30T17:36:53;4.97;;;4.47;;
4508;SDS011;2267;48.816;9.230;2022-09-30T17:39:21;5.40;;;4.90;;
4508;SDS011;2267;48.816;9.230;2022-09-30T17:41:50;5.03;;;4.50;;
4508;SDS011;2267;48.816;9.230;2022-09-30T17:44:35;7.57;;;6.00;;
4508;SDS011;2267;48.816;9.230;2022-09-30T17:47:04;8.17;;;5.17;;
4508;SDS011;2267;48.816;9.230;2022-09-30T17:49:34;6.47;;;5.80;;
4508;SDS011;2267;48.816;9.230;2022-09-30T17:52:02;6.93;;;5.57;;
4508;SDS011;2267;48.816;9.230;2022-09-30T17:54:29;6.00;;;5.50;;
4508;SDS011;2267;48.816;9.230;2022-09-30T17:56:56;6.13;;;5.63;;
4508;SDS011;2267;48.816;9.230;2022-09-30T17:59:23;6.83;;;6.03;;
4508;SDS011;2267;48.816;9.230;2022-09-30T18:01:52;6.50;;;5.90;;
4508;SDS011;2267;48.816;9.230;2022-09-30T18:04:21;7.63;;;6.83;;
4508;SDS011;2267;48.816;9.230;2022-09-30T18:06:51;8.50;;;7.20;;
4508;SDS011;2267;48.816;9.230;2022-09-30T18:09:19;10.93;;;8.20;;
4508;SDS011;2267;48.816;9.230;2022-09-30T18:11:46;9.60;;;8.00;;
4508;SDS011;2267;48.816;9.230;2022-09-30T18:14:14;8.67;;;7.97;;
4508;SDS011;2267;48.816;9.230;2022-09-30T18:16:41;8.23;;;7.43;;
4508;SDS011;2267;48.816;9.230;2022-09-30T18:19:08;8.37;;;7.20;;
4508;SDS011;2267;48.816;9.230;2022-09-30T18:21:35;7.37;;;6.70;;
4508;SDS011;2267;48.816;9.230;2022-09-30T18:24:03;7.33;;;6.63;;
4508;SDS011;2267;48.816;9.230;2022-09-30T18:26:33;8.57;;;7.83;;
4508;SDS011;2267;48.816;9.230;2022-09-30T18:29:01;7.63;;;6.93;;
4508;SDS011;2267;48.816;9.230;2022-09-30T18:31:29;7.40;;;6.80;;
4508;SDS011;2267;48.816;9.230;2022-09-30T18:34:04;7.97;;;7.00;;
4508;SDS011;2267;48.816;9.230;2022-09-30T18:36:31;9.00;;;8.20;;
4508;SDS011;2267;48.816;9.230;2022-09-30T18:38:59;9.20;;;7.60;;
4508;SDS011;2267;48.816;9.230;2022-09-30T18:41:27;7.57;;;6.87;;
4508;SDS011;2267;48.816;9.230;2022-09-30T18:43:57;8.67;;;7.00;;
4508;SDS011;2267;48.816;9.230;2022-09-30T18:46:28;7.80;;;7.20;;
4508;SDS011;2267;48.816;9.230;2022-09-30T18:48:55;8.17;;;7.17;;
4508;SDS011;2267;48.816;9.230;2022-09-30T18:51:23;7.93;;;7.23;;
4508;SDS011;2267;48.816;9.230;2022-09-30T18:53:51;7.93;;;7.23;;
4508;SDS011;2267;48.816;9.230;2022-09-30T18:56:21;7.83;;;7.07;;
4508;SDS011;2267;48.816;9.230;2022-09-30T18:58:48;9.30;;;8.30;;
4508;SDS011;2267;48.816;9.230;2022-09-30T19:01:16;7.90;;;7.10;;
4508;SDS011;2267;48.816;9.230;2022-09-30T19:03:44;9.30;;;8.00;;
4508;SDS011;2267;48.816;9.230;2022-09-30T19:06:11;8.57;;;7.73;;
4508;SDS011;2267;48.816;9.230;2022-09-30T19:08:38;7.50;;;6.90;;
4508;SDS011;2267;48.816;9.230;2022-09-30T19:11:05;9.20;;;8.30;;